Terminal Aerodrome Forecast
Issued by NWS Twin Cities, MN

Home | Current Version | Previous Version | Text Only | Print | Product List | Glossary Off
Versions: 1 2 3 4 5 6 7 8 9 10 11 12 13 14 15 16 17 18 19 20 21 22 23 24 25 26

755
FTUS43 KMPX 121736
TAFMSP
TAF
KMSP 121736Z 1218/1324 32015G23KT P6SM SKC
     FM130100 31009KT P6SM SKC
     FM131300 VRB02KT P6SM FEW250
     FM131800 16004KT P6SM SCT250=

USA.gov is the U.S. government's official web portal to all federal, state and local government web resources and services.